Time;durP1;ratioP1;P1;durP2;ratioP2;P2;SDS_P1;SDS_P2;PMS_P1;PMS_P2;Temp;Humidity;BMP_temperature;BMP_pressure;BME280_temperature;BME280_humidity;BME280_pressure;Samples;Min_cycle;Max_cycle;Signal;HPM_P1;HPM_P2
2022/11/20 00:01:22;;;;;;;;;;;;;;;;;;6223036;23;20013;-87
2022/11/20 00:03:48;;;;;;;;;;;;;;;;;;6228514;23;20316;-87
2022/11/20 00:06:14;;;;;;;;;;;;;;;;;;6231004;23;19919;-87
2022/11/20 00:08:43;;;;;;;;;;;;;;;;;;6225586;23;20324;-87
2022/11/20 00:11:15;;;;;;;;;;;;;;;;;;6228079;23;19923;-87
2022/11/20 00:13:43;;;;;;;;;;;;;;;;;;6227617;23;20967;-86
2022/11/20 00:16:09;;;;;;;;;;;;;;;;;;6229251;23;19973;-87
2022/11/20 00:18:35;;;;;;;;;;;;;;;;;;6228841;23;19994;-87
2022/11/20 00:21:04;;;;;;;;;;;;;;;;;;6230743;22;20400;-87
2022/11/20 00:23:30;;;;;;;;;;;;;;;;;;6226534;22;19923;-87
2022/11/20 00:26:03;;;;;;;;;;;;;;;;;;6228393;23;19930;-87
2022/11/20 00:28:29;;;;;;;;;;;;;;;;;;6227230;23;19923;-87
2022/11/20 00:30:55;;;;;;;;;;;;;;;;;;6226591;23;19920;-87
2022/11/20 00:33:27;;;;;;;;;;;;;;;;;;6225791;23;19931;-87
2022/11/20 00:35:53;;;;;;;;;;;;;;;;;;6230452;23;19948;-87
2022/11/20 00:38:28;;;;;;;;;;;;;;;;;;6228942;23;19919;-87
2022/11/20 00:40:57;;;;;;;;;;;;;;;;;;6228037;23;19915;-87
2022/11/20 00:43:23;;;;;;;;;;;;;;;;;;6226908;23;20359;-86
2022/11/20 00:45:49;;;;;;;;;;;;;;;;;;6229006;23;19919;-87
2022/11/20 00:48:15;;;;;;;;;;;;;;;;;;6230640;23;19926;-87
2022/11/20 00:50:44;;;;;;;;;;;;;;;;;;6228205;23;20411;-87
2022/11/20 00:53:10;;;;;;;;;;;;;;;;;;6230950;23;19926;-87
2022/11/20 00:55:38;;;;;;;;;;;;;;;;;;6227464;23;19920;-87
2022/11/20 00:58:04;;;;;;;;;;;;;;;;;;6233069;23;20006;-87
2022/11/20 01:00:33;;;;;;;;;;;;;;;;;;6226167;23;19966;-86
2022/11/20 01:02:59;;;;;;;;;;;;;;;;;;6225044;23;19981;-87
2022/11/20 01:05:25;;;;;;;;;;;;;;;;;;6223057;23;19924;-86
2022/11/20 01:07:51;;;;;;;;;;;;;;;;;;6229565;23;19966;-86
2022/11/20 01:10:17;;;;;;;;;;;;;;;;;;6230230;23;19947;-86
2022/11/20 01:13:36;;;;;;;;;;;;;;;;;;6228299;22;19916;-86
2022/11/20 01:15:32;;;;;;;;;;;;;;;;;;6223821;23;19923;-87
2022/11/20 01:17:57;;;;;;;;;;;;;;;;;;6229223;23;20295;-87
2022/11/20 01:20:27;;;;;;;;;;;;;;;;;;6224658;23;19958;-87
2022/11/20 01:22:55;;;;;;;;;;;;;;;;;;6228175;22;19973;-86
2022/11/20 01:25:21;;;;;;;;;;;;;;;;;;6225319;23;19954;-87
2022/11/20 01:27:48;;;;;;;;;;;;;;;;;;6227037;23;19915;-86
2022/11/20 01:30:14;;;;;;;;;;;;;;;;;;6227327;23;20402;-86
2022/11/20 01:32:40;;;;;;;;;;;;;;;;;;6228426;23;19926;-87
2022/11/20 01:35:11;;;;;;;;;;;;;;;;;;6228679;23;19998;-86
2022/11/20 01:37:37;;;;;;;;;;;;;;;;;;6228443;23;19920;-86
2022/11/20 01:40:03;;;;;;;;;;;;;;;;;;6228480;23;19919;-86
2022/11/20 01:45:14;;;;;;;;;;;;;;;;;;6229213;23;19915;-87
2022/11/20 01:47:43;;;;;;;;;;;;;;;;;;6225692;23;19955;-87
2022/11/20 01:50:09;;;;;;;;;;;;;;;;;;6227228;23;20407;-87
2022/11/20 01:52:38;;;;;;;;;;;;;;;;;;6229004;23;19920;-87
2022/11/20 01:55:06;;;;;;;;;;;;;;;;;;6227138;23;19924;-87
2022/11/20 01:57:32;;;;;;;;;;;;;;;;;;6225764;23;20391;-87
2022/11/20 01:59:58;;;;;;;;;;;;;;;;;;6229292;23;19961;-86
2022/11/20 02:02:24;;;;;;;;;;;;;;;;;;6222859;23;19950;-87
2022/11/20 02:04:50;;;;;;;;;;;;;;;;;;6226670;23;19930;-87
2022/11/20 02:07:16;;;;;;;;;;;;;;;;;;6227975;23;20575;-87
2022/11/20 02:09:53;;;;;;;;;;;;;;;;;;6228214;23;19915;-87
2022/11/20 02:15:06;;;;;;;;;;;;;;;;;;6230949;23;19923;-86
2022/11/20 02:17:50;;;;;;;;;;;;;;;;;;6224836;23;19930;-86
2022/11/20 02:20:23;;;;;;;;;;;;;;;;;;6226594;23;20018;-86
2022/11/20 02:22:52;;;;;;;;;;;;;;;;;;6229393;22;19919;-87
2022/11/20 02:25:20;;;;;;;;;;;;;;;;;;6227055;23;20019;-86
2022/11/20 02:27:46;;;;;;;;;;;;;;;;;;6226836;23;20018;-86
2022/11/20 02:30:15;;;;;;;;;;;;;;;;;;6226598;23;19927;-87
2022/11/20 02:32:41;;;;;;;;;;;;;;;;;;6225852;23;20518;-87
2022/11/20 02:35:14;;;;;;;;;;;;;;;;;;6232432;23;19927;-86
2022/11/20 02:37:41;;;;;;;;;;;;;;;;;;6228325;23;20381;-86
2022/11/20 02:40:07;;;;;;;;;;;;;;;;;;6254337;22;19920;-86
2022/11/20 02:42:33;;;;;;;;;;;;;;;;;;6226914;23;20336;-86
2022/11/20 02:45:01;;;;;;;;;;;;;;;;;;6229991;23;19919;-86
2022/11/20 02:47:27;;;;;;;;;;;;;;;;;;6227314;23;19926;-86
2022/11/20 02:49:53;;;;;;;;;;;;;;;;;;6229427;23;20248;-86
2022/11/20 02:52:19;;;;;;;;;;;;;;;;;;6229278;23;19942;-86
2022/11/20 02:54:45;;;;;;;;;;;;;;;;;;6256924;22;20308;-86
2022/11/20 02:57:11;;;;;;;;;;;;;;;;;;6231470;23;20379;-86
2022/11/20 02:59:43;;;;;;;;;;;;;;;;;;6229186;23;19924;-86
2022/11/20 03:02:09;;;;;;;;;;;;;;;;;;6227358;23;19919;-87
2022/11/20 03:04:35;;;;;;;;;;;;;;;;;;6227111;23;19949;-87
2022/11/20 03:07:01;;;;;;;;;;;;;;;;;;6230473;23;19920;-87
2022/11/20 03:09:27;;;;;;;;;;;;;;;;;;6228539;23;19919;-87
2022/11/20 03:11:56;;;;;;;;;;;;;;;;;;6230317;23;20352;-86
2022/11/20 03:14:22;;;;;;;;;;;;;;;;;;6229538;23;19919;-87
2022/11/20 03:16:48;;;;;;;;;;;;;;;;;;6230607;23;19915;-86
2022/11/20 03:19:14;;;;;;;;;;;;;;;;;;6229731;23;19946;-87
2022/11/20 03:21:43;;;;;;;;;;;;;;;;;;6227334;22;19923;-87
2022/11/20 03:24:09;;;;;;;;;;;;;;;;;;6229832;23;19923;-86
2022/11/20 03:26:37;;;;;;;;;;;;;;;;;;6229040;23;19923;-87
2022/11/20 03:29:04;;;;;;;;;;;;;;;;;;6232043;23;19923;-86
2022/11/20 03:31:30;;;;;;;;;;;;;;;;;;6228705;23;20321;-87
2022/11/20 03:33:58;;;;;;;;;;;;;;;;;;6230331;23;19974;-86
2022/11/20 03:36:24;;;;;;;;;;;;;;;;;;6230313;23;19993;-87
2022/11/20 03:38:53;;;;;;;;;;;;;;;;;;6231966;23;19923;-86
2022/11/20 03:41:22;;;;;;;;;;;;;;;;;;6230286;23;19916;-86
2022/11/20 03:43:48;;;;;;;;;;;;;;;;;;6230901;23;20392;-87
2022/11/20 03:46:14;;;;;;;;;;;;;;;;;;6229482;23;19950;-86
2022/11/20 03:48:40;;;;;;;;;;;;;;;;;;6225397;23;19931;-86
2022/11/20 03:51:06;;;;;;;;;;;;;;;;;;6226725;23;20378;-86
2022/11/20 03:53:32;;;;;;;;;;;;;;;;;;6226658;23;19923;-86
2022/11/20 03:56:04;;;;;;;;;;;;;;;;;;6229151;23;19915;-86
2022/11/20 03:58:30;;;;;;;;;;;;;;;;;;6227128;23;20065;-86
2022/11/20 04:00:59;;;;;;;;;;;;;;;;;;6229423;23;20022;-86
2022/11/20 04:03:28;;;;;;;;;;;;;;;;;;6226697;23;20018;-86
2022/11/20 04:05:54;;;;;;;;;;;;;;;;;;6230711;23;20641;-86
2022/11/20 04:08:20;;;;;;;;;;;;;;;;;;6229532;23;19942;-86
2022/11/20 04:10:46;;;;;;;;;;;;;;;;;;6229405;23;19922;-86
2022/11/20 04:13:12;;;;;;;;;;;;;;;;;;6229190;23;19923;-86
2022/11/20 04:15:40;;;;;;;;;;;;;;;;;;6229774;23;19922;-86
2022/11/20 04:18:06;;;;;;;;;;;;;;;;;;6233200;23;19920;-86
2022/11/20 04:20:35;;;;;;;;;;;;;;;;;;6227727;23;20280;-86
2022/11/20 04:23:01;;;;;;;;;;;;;;;;;;6231328;22;20252;-87
2022/11/20 04:25:31;;;;;;;;;;;;;;;;;;6228037;23;19930;-87
2022/11/20 04:27:57;;;;;;;;;;;;;;;;;;6229099;23;19915;-87
2022/11/20 04:30:23;;;;;;;;;;;;;;;;;;6226820;23;19924;-87
2022/11/20 04:32:49;;;;;;;;;;;;;;;;;;6229187;23;20739;-86
2022/11/20 04:35:18;;;;;;;;;;;;;;;;;;6230368;23;20359;-87
2022/11/20 04:37:44;;;;;;;;;;;;;;;;;;6225923;23;19971;-87
2022/11/20 04:40:10;;;;;;;;;;;;;;;;;;6228382;23;19919;-87
2022/11/20 04:42:38;;;;;;;;;;;;;;;;;;6226884;23;20233;-87
2022/11/20 04:45:04;;;;;;;;;;;;;;;;;;6229630;23;19947;-87
2022/11/20 04:47:30;;;;;;;;;;;;;;;;;;6229567;23;19946;-86
2022/11/20 04:49:56;;;;;;;;;;;;;;;;;;6229926;23;20341;-87
2022/11/20 04:52:31;;;;;;;;;;;;;;;;;;6226444;23;19919;-87
2022/11/20 04:54:57;;;;;;;;;;;;;;;;;;6229518;23;19933;-86
2022/11/20 04:57:23;;;;;;;;;;;;;;;;;;6226760;23;19974;-87
2022/11/20 04:59:49;;;;;;;;;;;;;;;;;;6229190;23;19970;-87
2022/11/20 05:02:15;;;;;;;;;;;;;;;;;;6228012;23;19915;-87
2022/11/20 05:04:41;;;;;;;;;;;;;;;;;;6225033;23;19951;-86
2022/11/20 05:07:07;;;;;;;;;;;;;;;;;;6230513;23;19950;-86
2022/11/20 05:09:33;;;;;;;;;;;;;;;;;;6222636;23;19919;-87
2022/11/20 05:11:59;;;;;;;;;;;;;;;;;;6229884;23;19920;-86
2022/11/20 05:14:25;;;;;;;;;;;;;;;;;;6226867;23;19924;-87
2022/11/20 05:16:57;;;;;;;;;;;;;;;;;;6229266;23;19927;-87
2022/11/20 05:19:23;;;;;;;;;;;;;;;;;;6227718;23;19919;-87
2022/11/20 05:21:49;;;;;;;;;;;;;;;;;;6230755;22;19919;-87
2022/11/20 05:24:15;;;;;;;;;;;;;;;;;;6227916;23;20042;-87
2022/11/20 05:26:41;;;;;;;;;;;;;;;;;;6225678;23;20840;-87
2022/11/20 05:29:07;;;;;;;;;;;;;;;;;;6226636;23;19927;-86
2022/11/20 05:31:33;;;;;;;;;;;;;;;;;;6225148;23;19916;-87
2022/11/20 05:34:06;;;;;;;;;;;;;;;;;;6229882;23;20069;-87
2022/11/20 05:36:35;;;;;;;;;;;;;;;;;;6227581;23;19920;-86
2022/11/20 05:39:01;;;;;;;;;;;;;;;;;;6229747;23;19974;-86
2022/11/20 05:41:27;;;;;;;;;;;;;;;;;;6225986;23;19973;-87
2022/11/20 05:43:53;;;;;;;;;;;;;;;;;;6229030;23;19924;-86
2022/11/20 05:46:24;;;;;;;;;;;;;;;;;;6227431;23;19919;-87
2022/11/20 05:48:50;;;;;;;;;;;;;;;;;;6229883;23;19966;-87
2022/11/20 05:51:16;;;;;;;;;;;;;;;;;;6228440;23;20398;-86
2022/11/20 05:53:42;;;;;;;;;;;;;;;;;;6225281;23;20244;-86
2022/11/20 05:56:09;;;;;;;;;;;;;;;;;;6230897;23;19920;-87
2022/11/20 05:58:38;;;;;;;;;;;;;;;;;;6226989;23;19919;-87
2022/11/20 06:01:04;;;;;;;;;;;;;;;;;;6225812;23;19926;-86
2022/11/20 06:03:30;;;;;;;;;;;;;;;;;;6224628;23;19926;-87
2022/11/20 06:05:59;;;;;;;;;;;;;;;;;;6227036;23;20315;-86
2022/11/20 06:08:25;;;;;;;;;;;;;;;;;;6225474;23;20603;-86
2022/11/20 06:10:53;;;;;;;;;;;;;;;;;;6230286;23;19923;-86
2022/11/20 06:13:22;;;;;;;;;;;;;;;;;;6230383;23;19920;-86
2022/11/20 06:15:48;;;;;;;;;;;;;;;;;;6228897;23;19916;-87
2022/11/20 06:18:20;;;;;;;;;;;;;;;;;;6229424;23;20009;-87
2022/11/20 06:20:46;;;;;;;;;;;;;;;;;;6228013;23;19926;-86
2022/11/20 06:23:12;;;;;;;;;;;;;;;;;;6229238;22;20299;-87
2022/11/20 06:25:38;;;;;;;;;;;;;;;;;;6225519;23;19928;-87
2022/11/20 06:28:04;;;;;;;;;;;;;;;;;;6228731;23;19924;-87
2022/11/20 06:30:30;;;;;;;;;;;;;;;;;;6225690;23;20396;-87
2022/11/20 06:32:56;;;;;;;;;;;;;;;;;;6227903;23;19992;-87
2022/11/20 06:35:22;;;;;;;;;;;;;;;;;;6225410;23;20244;-87
2022/11/20 06:37:54;;;;;;;;;;;;;;;;;;6230268;23;19967;-86
2022/11/20 06:40:23;;;;;;;;;;;;;;;;;;6225656;23;20575;-87
2022/11/20 06:42:49;;;;;;;;;;;;;;;;;;6229261;23;19965;-87
2022/11/20 06:45:15;;;;;;;;;;;;;;;;;;6228329;23;19923;-87
2022/11/20 06:47:41;;;;;;;;;;;;;;;;;;6228835;23;20516;-87
2022/11/20 06:50:07;;;;;;;;;;;;;;;;;;6234491;23;19915;-87
2022/11/20 06:52:33;;;;;;;;;;;;;;;;;;6229871;23;19969;-87
2022/11/20 06:54:59;;;;;;;;;;;;;;;;;;6229807;23;19927;-87
2022/11/20 06:57:28;;;;;;;;;;;;;;;;;;6230012;23;19919;-87
2022/11/20 06:59:57;;;;;;;;;;;;;;;;;;6229846;23;19923;-87
2022/11/20 07:02:23;;;;;;;;;;;;;;;;;;6223292;23;19916;-87
2022/11/20 07:04:49;;;;;;;;;;;;;;;;;;6225786;23;19916;-87
2022/11/20 07:07:15;;;;;;;;;;;;;;;;;;6227931;23;19924;-87
2022/11/20 07:09:41;;;;;;;;;;;;;;;;;;6223115;23;20468;-86
2022/11/20 07:12:07;;;;;;;;;;;;;;;;;;6229088;23;20329;-87
2022/11/20 07:14:33;;;;;;;;;;;;;;;;;;6224796;23;19946;-87
2022/11/20 07:16:59;;;;;;;;;;;;;;;;;;6228920;23;19919;-87
2022/11/20 07:19:27;;;;;;;;;;;;;;;;;;6226170;23;19919;-87
2022/11/20 07:21:53;;;;;;;;;;;;;;;;;;6229082;22;20357;-87
2022/11/20 07:24:19;;;;;;;;;;;;;;;;;;6230516;23;19982;-87
2022/11/20 07:26:46;;;;;;;;;;;;;;;;;;6232359;23;19998;-87
2022/11/20 07:29:12;;;;;;;;;;;;;;;;;;6231559;23;19924;-86
2022/11/20 07:31:41;;;;;;;;;;;;;;;;;;6228734;23;19958;-87
2022/11/20 07:34:09;;;;;;;;;;;;;;;;;;6230529;23;19972;-86
2022/11/20 07:36:35;;;;;;;;;;;;;;;;;;6227244;23;20321;-86
2022/11/20 07:39:01;;;;;;;;;;;;;;;;;;6228977;23;19976;-86
2022/11/20 07:41:30;;;;;;;;;;;;;;;;;;6229849;23;19920;-86
2022/11/20 07:43:58;;;;;;;;;;;;;;;;;;6230314;23;19988;-86
2022/11/20 07:46:27;;;;;;;;;;;;;;;;;;6229863;23;19920;-86
2022/11/20 07:48:53;;;;;;;;;;;;;;;;;;6227642;23;20093;-86
2022/11/20 07:51:19;;;;;;;;;;;;;;;;;;6231602;23;19920;-86
2022/11/20 07:53:49;;;;;;;;;;;;;;;;;;6230590;23;20329;-86
2022/11/20 07:56:15;;;;;;;;;;;;;;;;;;6229932;23;20019;-86
2022/11/20 07:58:42;;;;;;;;;;;;;;;;;;6224588;23;19947;-86
2022/11/20 08:01:08;;;;;;;;;;;;;;;;;;6227381;23;19919;-86
2022/11/20 08:03:34;;;;;;;;;;;;;;;;;;6228023;23;19995;-86
2022/11/20 08:06:03;;;;;;;;;;;;;;;;;;6226940;23;19920;-86
2022/11/20 08:08:29;;;;;;;;;;;;;;;;;;6225356;23;19970;-86
2022/11/20 08:14:11;;;;;;;;;;;;;;;;;;6231122;23;19959;-86
2022/11/20 08:16:25;;;;;;;;;;;;;;;;;;6227123;23;20351;-86
2022/11/20 08:18:52;;;;;;;;;;;;;;;;;;6229507;23;19990;-86
2022/11/20 08:21:18;;;;;;;;;;;;;;;;;;6228777;23;19919;-86
2022/11/20 08:23:44;;;;;;;;;;;;;;;;;;6229310;22;19920;-86
2022/11/20 08:26:10;;;;;;;;;;;;;;;;;;6229636;23;19924;-86
2022/11/20 08:28:36;;;;;;;;;;;;;;;;;;6229873;23;19951;-86
2022/11/20 08:31:02;;;;;;;;;;;;;;;;;;6231504;23;20287;-86
2022/11/20 08:33:28;;;;;;;;;;;;;;;;;;6225544;23;20014;-86
2022/11/20 08:35:54;;;;;;;;;;;;;;;;;;6229224;23;19915;-86
2022/11/20 08:38:28;;;;;;;;;;;;;;;;;;6229177;23;19920;-86
2022/11/20 08:43:50;;;;;;;;;;;;;;;;;;6227116;23;19916;-86
2022/11/20 08:46:16;;;;;;;;;;;;;;;;;;6228793;23;19958;-86
2022/11/20 08:48:42;;;;;;;;;;;;;;;;;;6254002;22;20244;-86
2022/11/20 09:42:55;;;;;;;;;;;;;;;;;;6266056;22;19919;-85
2022/11/20 09:45:24;;;;;;;;;;;;;;;;;;6209954;22;20354;-85
2022/11/20 09:47:50;;;;;;;;;;;;;;;;;;6212560;22;19921;-85
2022/11/20 09:50:23;;;;;;;;;;;;;;;;;;6213048;22;19956;-85
2022/11/20 09:52:57;;;;;;;;;;;;;;;;;;6215860;22;20334;-86
2022/11/20 09:55:23;;;;;;;;;;;;;;;;;;6211861;22;19919;-86
2022/11/20 09:57:54;;;;;;;;;;;;;;;;;;6214679;22;19953;-86
2022/11/20 10:00:21;;;;;;;;;;;;;;;;;;6211125;22;19961;-86
2022/11/20 10:02:50;;;;;;;;;;;;;;;;;;6213449;22;19926;-86
2022/11/20 10:05:16;;;;;;;;;;;;;;;;;;6213823;22;20250;-86
2022/11/20 10:07:44;;;;;;;;;;;;;;;;;;6211616;22;19919;-87
2022/11/20 10:10:10;;;;;;;;;;;;;;;;;;6213323;22;19946;-88
2022/11/20 10:12:39;;;;;;;;;;;;;;;;;;6237115;22;19919;-89
2022/11/20 10:15:05;;;;;;;;;;;;;;;;;;6239354;22;19923;-88
2022/11/20 10:17:34;;;;;;;;;;;;;;;;;;6211983;22;20660;-89
2022/11/20 10:20:03;;;;;;;;;;;;;;;;;;6214170;22;19919;-88
2022/11/20 10:22:29;;;;;;;;;;;;;;;;;;6211198;22;19958;-89
2022/11/20 10:25:01;;;;;;;;;;;;;;;;;;6236621;23;19923;-87
2022/11/20 10:27:29;;;;;;;;;;;;;;;;;;6235126;23;19923;-88
2022/11/20 10:29:58;;;;;;;;;;;;;;;;;;6233524;23;19920;-88
2022/11/20 10:37:44;;;;;;;;;;;;;;;;;;6261410;22;20002;-91
2022/11/20 10:40:18;;;;;;;;;;;;;;;;;;6205389;22;19951;-91
2022/11/20 10:42:44;;;;;;;;;;;;;;;;;;6229982;22;19973;-90
2022/11/20 10:45:10;;;;;;;;;;;;;;;;;;6206622;22;19926;-90
2022/11/20 10:47:36;;;;;;;;;;;;;;;;;;6205027;22;19974;-90
2022/11/20 10:50:02;;;;;;;;;;;;;;;;;;6205657;22;19919;-91
2022/11/20 10:52:28;;;;;;;;;;;;;;;;;;6226845;22;19926;-91
2022/11/20 10:54:54;;;;;;;;;;;;;;;;;;6233411;22;20386;-90
2022/11/20 10:57:20;;;;;;;;;;;;;;;;;;6236859;22;19927;-90
2022/11/20 10:59:49;;;;;;;;;;;;;;;;;;6238382;22;20385;-90
2022/11/20 11:02:15;;;;;;;;;;;;;;;;;;6235633;22;19919;-90
2022/11/20 11:04:41;;;;;;;;;;;;;;;;;;6233161;22;19994;-90
2022/11/20 11:07:07;;;;;;;;;;;;;;;;;;6236865;22;19980;-90
2022/11/20 11:09:33;;;;;;;;;;;;;;;;;;6235172;22;19919;-89
2022/11/20 11:11:59;;;;;;;;;;;;;;;;;;6236968;22;19919;-91
2022/11/20 11:14:25;;;;;;;;;;;;;;;;;;6233440;22;20048;-90
2022/11/20 11:16:51;;;;;;;;;;;;;;;;;;6238160;22;19915;-91
2022/11/20 11:19:17;;;;;;;;;;;;;;;;;;6238398;22;19970;-92
2022/11/20 11:21:43;;;;;;;;;;;;;;;;;;6237327;22;19919;-90
2022/11/20 11:24:09;;;;;;;;;;;;;;;;;;6237989;22;19966;-91
2022/11/20 11:26:35;;;;;;;;;;;;;;;;;;6232078;22;20299;-90
2022/11/20 11:29:02;;;;;;;;;;;;;;;;;;6255288;22;19919;-90
2022/11/20 11:31:28;;;;;;;;;;;;;;;;;;6253849;22;19903;-91
2022/11/20 11:33:54;;;;;;;;;;;;;;;;;;6235816;22;19930;-91
2022/11/20 11:36:20;;;;;;;;;;;;;;;;;;6233958;22;20403;-90
2022/11/20 11:38:46;;;;;;;;;;;;;;;;;;6232630;22;19923;-91
2022/11/20 11:41:12;;;;;;;;;;;;;;;;;;6236110;22;20000;-91
2022/11/20 11:46:23;;;;;;;;;;;;;;;;;;6232166;22;19919;-91
2022/11/20 11:48:49;;;;;;;;;;;;;;;;;;6236136;22;20297;-91
2022/11/20 11:51:18;;;;;;;;;;;;;;;;;;6234237;22;20339;-91
2022/11/20 11:53:44;;;;;;;;;;;;;;;;;;6231893;22;19950;-92
2022/11/20 11:56:10;;;;;;;;;;;;;;;;;;6233609;22;19923;-89
2022/11/20 11:58:36;;;;;;;;;;;;;;;;;;6233386;22;19919;-90
2022/11/20 12:01:02;;;;;;;;;;;;;;;;;;6235668;22;19990;-90
2022/11/20 12:03:28;;;;;;;;;;;;;;;;;;6232826;22;19919;-90
2022/11/20 12:05:54;;;;;;;;;;;;;;;;;;6234307;22;19919;-90
2022/11/20 12:08:23;;;;;;;;;;;;;;;;;;6233852;22;19968;-91
2022/11/20 12:10:49;;;;;;;;;;;;;;;;;;6231078;22;19966;-91
2022/11/20 12:13:20;;;;;;;;;;;;;;;;;;6235228;22;20370;-91
2022/11/20 12:15:50;;;;;;;;;;;;;;;;;;6235005;22;19989;-91
2022/11/20 12:18:21;;;;;;;;;;;;;;;;;;6234603;22;19994;-91
2022/11/20 12:20:56;;;;;;;;;;;;;;;;;;6229879;22;20738;-91
2022/11/20 12:23:42;;;;;;;;;;;;;;;;;;6230011;22;19926;-91
2022/11/20 12:26:11;;;;;;;;;;;;;;;;;;6232053;22;20213;-91
2022/11/20 12:28:40;;;;;;;;;;;;;;;;;;6231295;22;20286;-92
2022/11/20 12:31:06;;;;;;;;;;;;;;;;;;6235844;22;19915;-91
2022/11/20 12:33:32;;;;;;;;;;;;;;;;;;6230618;22;19977;-91
2022/11/20 12:35:58;;;;;;;;;;;;;;;;;;6231632;22;19923;-91
2022/11/20 12:38:24;;;;;;;;;;;;;;;;;;6231375;22;19927;-91
2022/11/20 12:40:50;;;;;;;;;;;;;;;;;;6259638;22;20292;-92
2022/11/20 12:46:01;;;;;;;;;;;;;;;;;;6232349;22;19954;-92
2022/11/20 12:48:27;;;;;;;;;;;;;;;;;;6229959;22;19926;-90
2022/11/20 12:50:53;;;;;;;;;;;;;;;;;;6233814;22;20328;-92
2022/11/20 12:53:22;;;;;;;;;;;;;;;;;;6235350;22;19969;-91
2022/11/20 12:55:48;;;;;;;;;;;;;;;;;;6233161;22;20307;-92
2022/11/20 12:58:16;;;;;;;;;;;;;;;;;;6233394;22;19951;-90
2022/11/20 13:00:42;;;;;;;;;;;;;;;;;;6229028;22;19915;-91
2022/11/20 13:03:08;;;;;;;;;;;;;;;;;;6233569;22;20260;-91
2022/11/20 13:05:34;;;;;;;;;;;;;;;;;;6231512;22;20212;-91
2022/11/20 13:08:00;;;;;;;;;;;;;;;;;;6233929;22;19919;-90
2022/11/20 13:10:26;;;;;;;;;;;;;;;;;;6232358;22;20384;-92
2022/11/20 13:12:52;;;;;;;;;;;;;;;;;;6235469;22;19919;-89
2022/11/20 13:15:18;;;;;;;;;;;;;;;;;;6236055;22;19923;-90
2022/11/20 13:17:44;;;;;;;;;;;;;;;;;;6227886;22;19986;-91
2022/11/20 13:20:10;;;;;;;;;;;;;;;;;;6229794;22;20376;-91
2022/11/20 13:22:36;;;;;;;;;;;;;;;;;;6226778;22;19916;-91
2022/11/20 13:25:02;;;;;;;;;;;;;;;;;;6234272;22;19919;-91
2022/11/20 13:27:30;;;;;;;;;;;;;;;;;;6228485;22;19976;-91
2022/11/20 13:29:56;;;;;;;;;;;;;;;;;;6233528;22;20231;-91
2022/11/20 13:32:22;;;;;;;;;;;;;;;;;;6231551;22;20433;-91
2022/11/20 13:34:48;;;;;;;;;;;;;;;;;;6234228;22;19967;-91
2022/11/20 13:37:14;;;;;;;;;;;;;;;;;;6234353;22;19923;-91
2022/11/20 13:39:40;;;;;;;;;;;;;;;;;;6233336;22;19919;-91
2022/11/20 13:42:06;;;;;;;;;;;;;;;;;;6236519;22;20386;-91
2022/11/20 13:44:32;;;;;;;;;;;;;;;;;;6229297;22;19919;-90
2022/11/20 13:47:01;;;;;;;;;;;;;;;;;;6233928;22;20308;-90
2022/11/20 13:49:27;;;;;;;;;;;;;;;;;;6232710;22;19945;-92
2022/11/20 13:51:53;;;;;;;;;;;;;;;;;;6235529;22;19981;-91
2022/11/20 13:54:22;;;;;;;;;;;;;;;;;;6231057;22;19923;-91
2022/11/20 13:56:48;;;;;;;;;;;;;;;;;;6235718;22;19951;-91
2022/11/20 13:59:22;;;;;;;;;;;;;;;;;;6235087;22;19919;-91
2022/11/20 14:01:48;;;;;;;;;;;;;;;;;;6236248;22;20251;-91
2022/11/20 14:04:14;;;;;;;;;;;;;;;;;;6234593;22;19919;-91
2022/11/20 14:06:40;;;;;;;;;;;;;;;;;;6232310;22;20281;-91
2022/11/20 14:09:06;;;;;;;;;;;;;;;;;;6233017;22;19919;-91
2022/11/20 14:11:33;;;;;;;;;;;;;;;;;;6230728;22;19916;-91
2022/11/20 14:13:59;;;;;;;;;;;;;;;;;;6235109;22;19924;-91
2022/11/20 14:16:25;;;;;;;;;;;;;;;;;;6233399;22;19919;-91
2022/11/20 14:18:51;;;;;;;;;;;;;;;;;;6231016;22;19915;-92
2022/11/20 14:21:17;;;;;;;;;;;;;;;;;;6233709;22;19919;-92
2022/11/20 14:23:43;;;;;;;;;;;;;;;;;;6232645;22;20265;-91
2022/11/20 14:26:09;;;;;;;;;;;;;;;;;;6235477;22;19931;-91
2022/11/20 14:28:35;;;;;;;;;;;;;;;;;;6232500;22;19919;-92
2022/11/20 14:31:01;;;;;;;;;;;;;;;;;;6234438;22;19950;-92
2022/11/20 14:33:29;;;;;;;;;;;;;;;;;;6234945;22;19986;-92
2022/11/20 14:35:56;;;;;;;;;;;;;;;;;;6237195;22;20073;-92
2022/11/20 14:38:22;;;;;;;;;;;;;;;;;;6233687;22;19993;-92
2022/11/20 14:40:48;;;;;;;;;;;;;;;;;;6235322;22;20257;-91
2022/11/20 14:43:14;;;;;;;;;;;;;;;;;;6235452;22;19926;-91
2022/11/20 14:45:42;;;;;;;;;;;;;;;;;;6235266;22;20398;-91
2022/11/20 14:48:24;;;;;;;;;;;;;;;;;;6235015;22;20339;-91
2022/11/20 14:50:50;;;;;;;;;;;;;;;;;;6237157;22;19919;-92
2022/11/20 14:53:16;;;;;;;;;;;;;;;;;;6235213;22;20333;-92
2022/11/20 14:55:51;;;;;;;;;;;;;;;;;;6235919;22;19930;-92
2022/11/20 14:58:20;;;;;;;;;;;;;;;;;;6237216;22;19946;-91
2022/11/20 15:00:58;;;;;;;;;;;;;;;;;;6236597;22;20749;-91
2022/11/20 15:03:27;;;;;;;;;;;;;;;;;;6238351;22;19922;-92
2022/11/20 15:05:53;;;;;;;;;;;;;;;;;;6228837;22;19943;-92
2022/11/20 15:08:22;;;;;;;;;;;;;;;;;;6229752;22;19919;-91
2022/11/20 15:10:48;;;;;;;;;;;;;;;;;;6232746;22;19977;-92
2022/11/20 15:13:14;;;;;;;;;;;;;;;;;;6233940;22;19973;-91
2022/11/20 15:15:40;;;;;;;;;;;;;;;;;;6232980;22;20374;-91
2022/11/20 15:18:06;;;;;;;;;;;;;;;;;;6235521;22;19930;-91
2022/11/20 15:20:32;;;;;;;;;;;;;;;;;;6230607;22;19925;-92
2022/11/20 15:23:01;;;;;;;;;;;;;;;;;;6233758;22;20386;-91
2022/11/20 15:25:28;;;;;;;;;;;;;;;;;;6232186;22;19926;-91
2022/11/20 15:27:54;;;;;;;;;;;;;;;;;;6239379;22;19994;-92
2022/11/20 15:30:22;;;;;;;;;;;;;;;;;;6237869;22;20422;-92
2022/11/20 15:32:48;;;;;;;;;;;;;;;;;;6237872;22;19923;-92
2022/11/20 15:35:14;;;;;;;;;;;;;;;;;;6238012;22;20359;-92
2022/11/20 15:37:40;;;;;;;;;;;;;;;;;;6237310;22;20395;-92
2022/11/20 15:40:06;;;;;;;;;;;;;;;;;;6240374;22;19926;-92
2022/11/20 15:42:32;;;;;;;;;;;;;;;;;;6238952;22;19951;-91
2022/11/20 15:45:00;;;;;;;;;;;;;;;;;;6240960;22;19919;-92
2022/11/20 15:47:27;;;;;;;;;;;;;;;;;;6238559;22;19965;-92
2022/11/20 15:49:55;;;;;;;;;;;;;;;;;;6243602;22;19962;-92
2022/11/20 15:52:21;;;;;;;;;;;;;;;;;;6231839;22;19922;-91
2022/11/20 15:54:47;;;;;;;;;;;;;;;;;;6235506;22;19923;-91
2022/11/20 15:57:13;;;;;;;;;;;;;;;;;;6235176;22;19926;-91
2022/11/20 15:59:41;;;;;;;;;;;;;;;;;;6233690;22;20318;-91
2022/11/20 16:02:10;;;;;;;;;;;;;;;;;;6236604;22;19919;-91
2022/11/20 16:04:36;;;;;;;;;;;;;;;;;;6236939;22;19926;-91
2022/11/20 16:07:02;;;;;;;;;;;;;;;;;;6234695;22;19951;-91
2022/11/20 16:09:30;;;;;;;;;;;;;;;;;;6231182;22;19919;-92
2022/11/20 16:11:59;;;;;;;;;;;;;;;;;;6229568;22;19933;-91
2022/11/20 16:17:09;;;;;;;;;;;;;;;;;;6232121;22;19927;-92
2022/11/20 16:19:35;;;;;;;;;;;;;;;;;;6233335;22;19926;-91
2022/11/20 16:22:01;;;;;;;;;;;;;;;;;;6231043;22;19923;-91
2022/11/20 16:24:30;;;;;;;;;;;;;;;;;;6225171;22;19962;-91
2022/11/20 16:26:56;;;;;;;;;;;;;;;;;;6232501;22;20290;-91
2022/11/20 16:29:22;;;;;;;;;;;;;;;;;;6233362;22;20417;-92
2022/11/20 16:31:50;;;;;;;;;;;;;;;;;;6234230;22;20323;-92
2022/11/20 16:34:18;;;;;;;;;;;;;;;;;;6232935;22;20316;-91
2022/11/20 16:36:46;;;;;;;;;;;;;;;;;;6229846;22;19919;-91
2022/11/20 16:39:27;;;;;;;;;;;;;;;;;;6228801;22;19954;-91
2022/11/20 16:41:56;;;;;;;;;;;;;;;;;;6232077;22;20330;-91
2022/11/20 16:44:44;;;;;;;;;;;;;;;;;;;;;
2022/11/20 16:47:30;;;;;;;;;;;;;;;;;;6226892;22;20289;-92
2022/11/20 16:53:30;;;;;;;;;;;;;;;;;;6102279;23;20053;-91
2022/11/20 16:56:16;;;;;;;;;;;;;;;;;;;;;
2022/11/20 16:58:50;;;;;;;;;;;;;;;;;;6076353;23;19920;-90
2022/11/20 17:01:42;;;;;;;;;;;;;;;;;;6112405;23;20366;-91
2022/11/20 17:04:13;;;;;;;;;;;;;;;;;;6045005;23;19932;-91
2022/11/20 17:06:49;;;;;;;;;;;;;;;;;;6025627;23;20004;-91
2022/11/20 17:09:34;;;;;;;;;;;;;;;;;;6020989;23;19921;-91
2022/11/20 17:12:10;;;;;;;;;;;;;;;;;;6028138;23;20240;-91
2022/11/20 17:17:50;;;;;;;;;;;;;;;;;;6087111;23;19932;-90
2022/11/20 17:20:34;;;;;;;;;;;;;;;;;;6084257;23;19921;-90
2022/11/20 17:23:20;;;;;;;;;;;;;;;;;;6087727;23;19920;-91
2022/11/20 17:25:52;;;;;;;;;;;;;;;;;;6147847;23;19923;-91
2022/11/20 17:28:30;;;;;;;;;;;;;;;;;;6168968;23;20341;-90
2022/11/20 17:31:16;;;;;;;;;;;;;;;;;;;;;
2022/11/20 17:33:58;;;;;;;;;;;;;;;;;;6106636;23;20749;-91
2022/11/20 17:36:30;;;;;;;;;;;;;;;;;;6114707;23;20338;-90
2022/11/20 17:38:56;;;;;;;;;;;;;;;;;;6185922;23;20311;-91
2022/11/20 17:41:24;;;;;;;;;;;;;;;;;;6185894;23;20230;-91
2022/11/20 17:43:50;;;;;;;;;;;;;;;;;;6188499;23;19920;-91
2022/11/20 17:46:24;;;;;;;;;;;;;;;;;;6164396;23;19924;-91
2022/11/20 17:49:07;;;;;;;;;;;;;;;;;;6188621;23;19920;-91
2022/11/20 17:54:28;;;;;;;;;;;;;;;;;;6077371;23;19976;-91
2022/11/20 18:00:12;;;;;;;;;;;;;;;;;;6138007;23;19920;-90
2022/11/20 18:03:00;;;;;;;;;;;;;;;;;;6186130;23;19959;-90
2022/11/20 18:05:26;;;;;;;;;;;;;;;;;;6218883;22;19986;-90
2022/11/20 18:07:58;;;;;;;;;;;;;;;;;;6229539;22;20337;-90
2022/11/20 18:10:30;;;;;;;;;;;;;;;;;;6229415;22;19996;-91
2022/11/20 18:13:06;;;;;;;;;;;;;;;;;;6230510;22;19930;-90
2022/11/20 18:15:33;;;;;;;;;;;;;;;;;;6231117;22;20336;-90
2022/11/20 18:18:05;;;;;;;;;;;;;;;;;;6255885;22;19925;-90
2022/11/20 18:20:52;;;;;;;;;;;;;;;;;;6237923;22;19926;-90
2022/11/20 18:23:41;;;;;;;;;;;;;;;;;;6231486;22;19945;-91